Time;durP1;ratioP1;P1;durP2;ratioP2;P2;SDS_P1;SDS_P2;PMS_P1;PMS_P2;Temp;Humidity;BMP_temperature;BMP_pressure;BME280_temperature;BME280_humidity;BME280_pressure;Samples;Min_cycle;Max_cycle;Signal;HPM_P1;HPM_P2
2022/03/18 00:00:41;;;;;;;23.02;13.52;;;;;;;;;;4945457;28;20047;-82
2022/03/18 00:03:07;;;;;;;20.45;13.40;;;;;;;;;;4940075;28;20048;-82
2022/03/18 00:05:34;;;;;;;21.73;12.90;;;;;;;;;;4974798;28;20043;-82
2022/03/18 00:08:00;;;;;;;24.48;13.13;;;;;;;;;;4953543;28;20062;-82
2022/03/18 00:10:26;;;;;;;25.10;13.90;;;;;;;;;;4957760;28;20078;-82
2022/03/18 00:12:52;;;;;;;19.38;13.10;;;;;;;;;;4943616;28;20505;-82
2022/03/18 00:15:19;;;;;;;24.58;13.90;;;;;;;;;;4941311;28;20075;-82
2022/03/18 00:17:45;;;;;;;21.85;13.30;;;;;;;;;;4944314;28;20043;-82
2022/03/18 00:20:13;;;;;;;25.25;13.75;;;;;;;;;;4929245;28;20074;-82
2022/03/18 00:22:39;;;;;;;25.20;13.98;;;;;;;;;;4937304;28;20118;-82
2022/03/18 00:25:06;;;;;;;22.02;13.48;;;;;;;;;;4951789;28;20040;-82
2022/03/18 00:27:32;;;;;;;21.35;12.38;;;;;;;;;;4942628;28;20023;-82
2022/03/18 00:29:58;;;;;;;25.00;14.40;;;;;;;;;;4945609;28;20046;-82
2022/03/18 00:32:24;;;;;;;21.45;12.43;;;;;;;;;;4950607;28;20047;-82
2022/03/18 00:34:50;;;;;;;19.77;12.80;;;;;;;;;;4952159;28;20051;-82
2022/03/18 00:37:16;;;;;;;24.20;12.93;;;;;;;;;;4958645;28;20501;-82
2022/03/18 00:39:41;;;;;;;21.13;12.55;;;;;;;;;;4954653;28;20070;-82
2022/03/18 00:42:08;;;;;;;22.17;12.35;;;;;;;;;;4967017;28;20410;-82
2022/03/18 00:44:34;;;;;;;21.25;13.20;;;;;;;;;;4935099;28;20039;-82
2022/03/18 00:47:00;;;;;;;19.15;11.75;;;;;;;;;;4952999;28;20480;-82
2022/03/18 00:52:14;;;;;;;20.33;11.70;;;;;;;;;;4956028;28;20189;-82
2022/03/18 00:54:40;;;;;;;20.15;11.70;;;;;;;;;;4957579;28;20039;-82
2022/03/18 00:57:07;;;;;;;20.60;11.40;;;;;;;;;;4963764;28;20121;-82
2022/03/18 00:59:33;;;;;;;16.50;10.68;;;;;;;;;;4955779;28;20097;-82
2022/03/18 01:01:59;;;;;;;21.60;11.27;;;;;;;;;;4968783;28;20043;-82
2022/03/18 01:04:26;;;;;;;18.75;11.05;;;;;;;;;;4945695;28;20572;-82
2022/03/18 01:06:52;;;;;;;15.95;10.30;;;;;;;;;;4948630;28;20090;-82
2022/03/18 01:09:19;;;;;;;17.80;10.15;;;;;;;;;;4942920;28;20070;-82
2022/03/18 01:11:44;;;;;;;18.38;10.35;;;;;;;;;;4947057;28;20039;-82
2022/03/18 01:14:10;;;;;;;19.90;11.05;;;;;;;;;;4960050;28;20036;-82
2022/03/18 01:16:36;;;;;;;15.65;9.43;;;;;;;;;;4955620;28;20409;-82
2022/03/18 01:19:02;;;;;;;17.23;9.32;;;;;;;;;;4960887;28;20460;-82
2022/03/18 01:21:27;;;;;;;19.33;10.32;;;;;;;;;;4952530;28;20105;-82
2022/03/18 01:23:53;;;;;;;19.77;10.32;;;;;;;;;;4953365;28;20527;-82
2022/03/18 01:26:19;;;;;;;18.75;8.95;;;;;;;;;;4946692;28;20067;-82
2022/03/18 01:28:44;;;;;;;12.82;8.38;;;;;;;;;;4969033;28;20058;-82
2022/03/18 01:31:10;;;;;;;14.45;8.75;;;;;;;;;;4968490;28;20086;-82
2022/03/18 01:33:37;;;;;;;14.27;8.82;;;;;;;;;;4968190;28;20034;-82
2022/03/18 01:36:04;;;;;;;16.83;8.52;;;;;;;;;;4964106;28;20043;-82
2022/03/18 01:38:29;;;;;;;14.80;8.77;;;;;;;;;;4953173;28;20055;-82
2022/03/18 01:40:55;;;;;;;12.57;8.15;;;;;;;;;;4967535;28;20390;-82
2022/03/18 01:43:21;;;;;;;14.93;8.75;;;;;;;;;;4967469;28;20058;-82
2022/03/18 01:45:47;;;;;;;14.05;8.15;;;;;;;;;;4951619;28;20134;-82
2022/03/18 01:48:14;;;;;;;12.43;7.63;;;;;;;;;;4939755;28;20051;-82
2022/03/18 01:50:41;;;;;;;23.27;8.02;;;;;;;;;;4947069;28;20398;-82
2022/03/18 01:53:07;;;;;;;16.02;8.60;;;;;;;;;;4945286;28;20061;-82
2022/03/18 01:55:33;;;;;;;14.90;7.82;;;;;;;;;;4968138;28;20045;-83
2022/03/18 01:57:58;;;;;;;15.88;8.05;;;;;;;;;;4959469;28;20504;-82
2022/03/18 02:00:25;;;;;;;15.98;7.60;;;;;;;;;;4956124;28;20098;-82
2022/03/18 02:02:52;;;;;;;11.52;7.28;;;;;;;;;;4939225;28;20496;-83
2022/03/18 02:05:17;;;;;;;16.27;7.45;;;;;;;;;;4953973;28;20038;-82
2022/03/18 02:07:45;;;;;;;13.70;7.07;;;;;;;;;;4932091;28;20087;-82
2022/03/18 02:10:11;;;;;;;12.27;7.15;;;;;;;;;;4946473;28;20050;-82
2022/03/18 02:12:37;;;;;;;16.92;7.55;;;;;;;;;;4941361;28;20074;-82
2022/03/18 02:15:03;;;;;;;16.45;7.43;;;;;;;;;;4938455;28;20056;-82
2022/03/18 02:17:29;;;;;;;15.80;6.90;;;;;;;;;;4933278;29;20039;-82
2022/03/18 02:19:55;;;;;;;17.30;7.78;;;;;;;;;;4959597;28;20050;-82
2022/03/18 02:22:23;;;;;;;13.23;6.95;;;;;;;;;;4951360;28;20078;-82
2022/03/18 02:24:50;;;;;;;10.00;7.10;;;;;;;;;;4964053;28;20041;-82
2022/03/18 02:27:17;;;;;;;13.88;6.80;;;;;;;;;;4945976;28;20050;-82
2022/03/18 02:29:43;;;;;;;17.88;7.70;;;;;;;;;;4960503;28;20060;-82
2022/03/18 02:32:10;;;;;;;14.57;6.88;;;;;;;;;;4950325;28;20134;-82
2022/03/18 02:34:37;;;;;;;18.75;7.25;;;;;;;;;;4946085;28;20126;-84
2022/03/18 02:37:03;;;;;;;13.55;6.97;;;;;;;;;;4946128;28;20574;-82
2022/03/18 02:39:28;;;;;;;18.30;8.20;;;;;;;;;;4966143;28;20038;-82
2022/03/18 02:41:54;;;;;;;10.80;7.00;;;;;;;;;;4967480;28;20531;-82
2022/03/18 02:44:20;;;;;;;16.42;8.88;;;;;;;;;;4931137;28;20087;-82
2022/03/18 02:46:46;;;;;;;11.00;6.22;;;;;;;;;;4946403;28;20031;-82
2022/03/18 02:49:12;;;;;;;17.77;7.50;;;;;;;;;;4930903;28;20117;-82
2022/03/18 02:51:38;;;;;;;15.50;7.35;;;;;;;;;;4958846;28;20153;-82
2022/03/18 02:54:07;;;;;;;13.77;6.80;;;;;;;;;;4959728;28;20047;-82
2022/03/18 02:56:34;;;;;;;11.88;6.28;;;;;;;;;;4938647;28;20569;-82
2022/03/18 02:59:00;;;;;;;14.98;6.95;;;;;;;;;;4956350;28;20043;-82
2022/03/18 03:01:27;;;;;;;12.75;6.15;;;;;;;;;;4951016;28;20145;-82
2022/03/18 03:03:53;;;;;;;11.95;6.93;;;;;;;;;;4943176;28;20145;-82
2022/03/18 03:09:04;;;;;;;15.48;6.75;;;;;;;;;;4956367;28;20054;-82
2022/03/18 03:11:29;;;;;;;11.02;6.28;;;;;;;;;;4950893;28;20130;-83
2022/03/18 03:13:55;;;;;;;11.43;7.22;;;;;;;;;;4959828;28;20042;-82
2022/03/18 03:16:21;;;;;;;14.15;6.22;;;;;;;;;;4967558;28;20082;-82
2022/03/18 03:18:47;;;;;;;14.40;7.22;;;;;;;;;;4963707;28;20062;-82
2022/03/18 03:21:14;;;;;;;15.02;6.82;;;;;;;;;;4957429;28;20400;-82
2022/03/18 03:23:39;;;;;;;17.13;6.97;;;;;;;;;;4941106;28;20073;-82
2022/03/18 03:26:05;;;;;;;14.90;7.32;;;;;;;;;;4945804;28;20038;-83
2022/03/18 03:28:31;;;;;;;12.63;7.32;;;;;;;;;;4966938;28;20039;-82
2022/03/18 03:30:56;;;;;;;17.70;6.93;;;;;;;;;;4957674;28;20111;-83
2022/03/18 03:33:22;;;;;;;12.32;6.72;;;;;;;;;;4956076;28;20473;-83
2022/03/18 03:35:48;;;;;;;16.13;6.47;;;;;;;;;;4947137;28;20119;-83
2022/03/18 03:38:14;;;;;;;11.52;6.22;;;;;;;;;;4951482;28;20074;-82
2022/03/18 03:40:40;;;;;;;16.33;6.28;;;;;;;;;;4937870;28;20722;-80
2022/03/18 03:43:06;;;;;;;14.23;6.32;;;;;;;;;;4952159;28;20054;-80
2022/03/18 03:45:32;;;;;;;12.30;6.28;;;;;;;;;;4956500;28;20269;-80
2022/03/18 03:47:58;;;;;;;11.38;5.47;;;;;;;;;;4940821;28;20045;-83
2022/03/18 03:50:23;;;;;;;11.77;5.80;;;;;;;;;;4916592;28;20038;-83
2022/03/18 03:52:49;;;;;;;10.80;5.22;;;;;;;;;;4973402;28;20401;-84
2022/03/18 03:55:15;;;;;;;14.45;6.10;;;;;;;;;;4945432;28;20063;-83
2022/03/18 03:57:41;;;;;;;11.93;6.13;;;;;;;;;;4965723;28;20090;-83
2022/03/18 04:00:08;;;;;;;12.85;5.43;;;;;;;;;;4951716;28;20075;-83
2022/03/18 04:02:34;;;;;;;12.88;5.75;;;;;;;;;;4962549;28;20041;-83
2022/03/18 04:04:59;;;;;;;13.73;5.75;;;;;;;;;;4937088;29;20043;-83
2022/03/18 04:07:26;;;;;;;15.18;4.90;;;;;;;;;;4946721;28;20583;-83
2022/03/18 04:09:54;;;;;;;9.85;5.13;;;;;;;;;;4952609;28;20042;-83
2022/03/18 04:12:21;;;;;;;14.20;5.40;;;;;;;;;;4960873;28;20039;-83
2022/03/18 04:14:47;;;;;;;12.10;4.90;;;;;;;;;;4946185;28;20061;-83
2022/03/18 04:17:13;;;;;;;17.75;5.60;;;;;;;;;;4960967;28;20046;-84
2022/03/18 04:19:39;;;;;;;15.68;5.45;;;;;;;;;;4943154;28;20125;-83
2022/03/18 04:22:05;;;;;;;19.38;4.88;;;;;;;;;;4969710;28;20544;-83
2022/03/18 04:24:31;;;;;;;14.45;5.15;;;;;;;;;;4949063;28;20455;-83
2022/03/18 04:26:56;;;;;;;12.80;4.15;;;;;;;;;;4942382;28;20038;-83
2022/03/18 04:29:22;;;;;;;14.40;4.55;;;;;;;;;;4941303;28;20078;-83
2022/03/18 04:31:49;;;;;;;14.88;4.35;;;;;;;;;;4961464;28;20046;-83
2022/03/18 04:34:15;;;;;;;16.83;4.47;;;;;;;;;;4965302;28;20050;-83
2022/03/18 04:36:40;;;;;;;11.63;4.25;;;;;;;;;;4969912;28;20061;-84
2022/03/18 04:39:06;;;;;;;11.55;4.35;;;;;;;;;;4940826;28;20079;-83
2022/03/18 04:41:32;;;;;;;13.70;4.18;;;;;;;;;;4938205;28;20400;-83
2022/03/18 04:43:57;;;;;;;11.98;4.30;;;;;;;;;;4978700;28;20043;-84
2022/03/18 04:46:23;;;;;;;10.15;3.92;;;;;;;;;;4958672;28;20488;-84
2022/03/18 04:48:49;;;;;;;8.65;3.50;;;;;;;;;;4967338;28;20105;-83
2022/03/18 04:51:15;;;;;;;10.30;4.15;;;;;;;;;;4945417;28;20085;-84
2022/03/18 04:53:42;;;;;;;16.17;4.22;;;;;;;;;;4969289;28;20165;-83
2022/03/18 04:57:15;;;;;;;8.60;3.63;;;;;;;;;;4962745;28;20043;-83
2022/03/18 04:58:54;;;;;;;9.95;3.60;;;;;;;;;;4946954;28;20051;-83
2022/03/18 05:01:20;;;;;;;14.27;5.07;;;;;;;;;;4941390;28;20050;-83
2022/03/18 05:03:46;;;;;;;18.13;4.30;;;;;;;;;;4968351;28;20086;-83
2022/03/18 05:06:13;;;;;;;18.85;4.03;;;;;;;;;;4938285;28;20427;-83
2022/03/18 05:08:39;;;;;;;10.40;4.70;;;;;;;;;;4961966;28;20293;-83
2022/03/18 05:11:04;;;;;;;9.95;3.53;;;;;;;;;;4963166;28;20094;-83
2022/03/18 05:13:30;;;;;;;12.18;4.00;;;;;;;;;;4943634;28;20063;-83
2022/03/18 05:15:56;;;;;;;15.10;4.30;;;;;;;;;;4933100;28;20070;-83
2022/03/18 05:18:22;;;;;;;13.15;3.92;;;;;;;;;;4943161;28;20118;-83
2022/03/18 05:20:47;;;;;;;11.57;3.67;;;;;;;;;;4938352;28;20039;-83
2022/03/18 05:23:14;;;;;;;13.55;3.70;;;;;;;;;;4947243;28;20583;-83
2022/03/18 05:25:40;;;;;;;13.55;3.60;;;;;;;;;;4980738;28;20054;-83
2022/03/18 05:28:07;;;;;;;15.25;4.20;;;;;;;;;;4961588;28;20043;-83
2022/03/18 05:30:33;;;;;;;16.83;4.20;;;;;;;;;;4950917;28;20055;-83
2022/03/18 05:32:59;;;;;;;13.35;4.07;;;;;;;;;;4953663;28;20049;-83
2022/03/18 05:35:24;;;;;;;14.85;3.90;;;;;;;;;;4968386;28;20417;-83
2022/03/18 05:37:50;;;;;;;15.45;3.35;;;;;;;;;;4959539;28;20043;-83
2022/03/18 05:40:18;;;;;;;15.18;3.85;;;;;;;;;;4943366;28;20075;-83
2022/03/18 05:42:45;;;;;;;13.77;4.32;;;;;;;;;;4965088;28;20126;-83
2022/03/18 05:45:10;;;;;;;13.38;3.92;;;;;;;;;;4945618;28;20121;-83
2022/03/18 05:47:36;;;;;;;13.30;3.88;;;;;;;;;;4928643;28;20058;-83
2022/03/18 05:50:05;;;;;;;11.82;3.78;;;;;;;;;;4958470;28;20456;-83
2022/03/18 05:52:31;;;;;;;12.85;3.03;;;;;;;;;;4938280;29;20520;-83
2022/03/18 05:54:56;;;;;;;13.48;3.38;;;;;;;;;;4934653;28;20046;-83
2022/03/18 05:57:26;;;;;;;12.95;3.70;;;;;;;;;;4960134;28;20537;-83
2022/03/18 05:59:52;;;;;;;18.45;3.70;;;;;;;;;;4940090;28;20606;-84
2022/03/18 06:02:18;;;;;;;10.95;2.92;;;;;;;;;;4955057;28;20463;-83
2022/03/18 06:04:44;;;;;;;18.70;3.25;;;;;;;;;;4939433;28;20130;-83
2022/03/18 06:07:09;;;;;;;11.35;3.00;;;;;;;;;;4942246;28;20415;-83
2022/03/18 06:12:20;;;;;;;11.40;3.10;;;;;;;;;;4935081;29;20162;-83
2022/03/18 06:14:45;;;;;;;11.95;3.30;;;;;;;;;;4930235;28;20071;-83
2022/03/18 06:17:11;;;;;;;9.13;2.75;;;;;;;;;;4970911;28;20102;-83
2022/03/18 06:19:37;;;;;;;8.43;2.70;;;;;;;;;;4943764;28;20466;-83
2022/03/18 06:22:03;;;;;;;15.00;3.70;;;;;;;;;;4946272;28;20102;-84
2022/03/18 06:24:29;;;;;;;11.82;2.95;;;;;;;;;;4956633;28;20611;-83
2022/03/18 06:26:56;;;;;;;10.85;2.97;;;;;;;;;;4955805;28;20046;-83
2022/03/18 06:29:21;;;;;;;12.68;2.90;;;;;;;;;;4945537;28;20051;-83
2022/03/18 06:31:48;;;;;;;11.55;2.88;;;;;;;;;;4932651;28;20039;-83
2022/03/18 06:34:14;;;;;;;11.80;3.08;;;;;;;;;;4927798;28;20045;-83
2022/03/18 06:36:40;;;;;;;12.80;3.10;;;;;;;;;;4929106;28;20199;-83
2022/03/18 06:39:07;;;;;;;8.88;2.97;;;;;;;;;;4937324;28;20129;-83
2022/03/18 06:41:33;;;;;;;14.00;3.47;;;;;;;;;;4952155;28;20106;-84
2022/03/18 06:43:59;;;;;;;11.55;3.60;;;;;;;;;;4959169;28;20043;-84
2022/03/18 06:46:25;;;;;;;12.05;3.17;;;;;;;;;;4948480;28;20393;-84
2022/03/18 06:48:51;;;;;;;12.45;2.88;;;;;;;;;;4948016;28;20051;-83
2022/03/18 06:51:17;;;;;;;13.45;3.95;;;;;;;;;;4961913;28;20057;-84
2022/03/18 06:53:43;;;;;;;11.65;3.97;;;;;;;;;;4957971;28;20043;-83
2022/03/18 06:56:09;;;;;;;12.23;4.13;;;;;;;;;;4962720;28;20110;-83
2022/03/18 06:58:35;;;;;;;14.13;4.05;;;;;;;;;;4947310;28;20050;-83
2022/03/18 07:01:01;;;;;;;15.50;3.40;;;;;;;;;;4943917;29;20051;-83
2022/03/18 07:03:27;;;;;;;15.10;4.40;;;;;;;;;;4942744;29;20039;-83
2022/03/18 07:05:52;;;;;;;17.00;3.90;;;;;;;;;;4957963;28;20070;-83
2022/03/18 07:08:18;;;;;;;13.52;4.30;;;;;;;;;;4946155;28;20090;-79
2022/03/18 07:10:44;;;;;;;12.15;4.80;;;;;;;;;;4990972;28;20130;-79
2022/03/18 07:13:10;;;;;;;18.60;4.55;;;;;;;;;;4962260;28;20099;-79
2022/03/18 07:15:35;;;;;;;13.93;3.10;;;;;;;;;;4950924;28;20040;-79
2022/03/18 07:18:03;;;;;;;17.05;3.22;;;;;;;;;;4937276;28;20118;-79
2022/03/18 07:20:31;;;;;;;12.93;3.05;;;;;;;;;;4957039;28;20256;-79
2022/03/18 07:23:07;;;;;;;16.80;3.20;;;;;;;;;;4939934;29;20117;-79
2022/03/18 07:25:38;;;;;;;16.30;3.60;;;;;;;;;;4948195;28;20047;-79
2022/03/18 07:28:05;;;;;;;13.23;3.30;;;;;;;;;;4973871;28;20098;-79
2022/03/18 07:30:31;;;;;;;13.68;3.33;;;;;;;;;;4953095;28;20094;-79
2022/03/18 07:32:57;;;;;;;13.38;3.05;;;;;;;;;;4996122;28;20049;-79
2022/03/18 07:35:23;;;;;;;18.48;4.13;;;;;;;;;;4960960;28;20039;-79
2022/03/18 07:37:49;;;;;;;13.98;3.42;;;;;;;;;;4958811;28;20038;-79
2022/03/18 07:40:17;;;;;;;12.57;3.08;;;;;;;;;;4960754;28;20480;-78
2022/03/18 07:42:47;;;;;;;9.35;3.45;;;;;;;;;;4944060;28;20042;-79
2022/03/18 07:45:17;;;;;;;14.25;2.80;;;;;;;;;;4958376;28;20081;-79
2022/03/18 07:47:43;;;;;;;12.18;3.00;;;;;;;;;;4958517;28;20035;-79
2022/03/18 07:50:09;;;;;;;16.63;3.67;;;;;;;;;;4943806;28;20346;-79
2022/03/18 07:52:35;;;;;;;16.13;3.25;;;;;;;;;;4947969;28;20460;-79
2022/03/18 07:55:01;;;;;;;17.52;3.35;;;;;;;;;;4953896;28;20043;-79
2022/03/18 07:57:27;;;;;;;12.02;3.45;;;;;;;;;;4951206;28;20042;-79
2022/03/18 07:59:53;;;;;;;13.82;3.10;;;;;;;;;;4936209;28;20039;-79
2022/03/18 08:02:19;;;;;;;19.88;3.28;;;;;;;;;;4971513;28;20094;-79
2022/03/18 08:04:47;;;;;;;12.52;2.95;;;;;;;;;;4946854;28;20571;-82
2022/03/18 08:07:12;;;;;;;13.30;3.28;;;;;;;;;;4942794;28;20071;-79
2022/03/18 08:09:38;;;;;;;10.63;3.47;;;;;;;;;;4952526;28;20110;-80
2022/03/18 08:12:04;;;;;;;9.85;2.90;;;;;;;;;;4956141;28;20073;-79
2022/03/18 08:14:31;;;;;;;11.88;3.25;;;;;;;;;;4963036;28;20073;-78
2022/03/18 08:16:57;;;;;;;14.40;4.05;;;;;;;;;;4957862;28;20044;-79
2022/03/18 08:19:22;;;;;;;14.82;3.17;;;;;;;;;;4954214;28;20124;-79
2022/03/18 08:21:48;;;;;;;15.60;3.63;;;;;;;;;;4954312;28;20066;-78
2022/03/18 08:24:14;;;;;;;19.25;4.07;;;;;;;;;;4935240;28;20047;-79
2022/03/18 08:26:39;;;;;;;16.45;3.40;;;;;;;;;;4962717;28;20043;-78
2022/03/18 08:29:05;;;;;;;13.73;3.28;;;;;;;;;;4961997;28;20051;-79
2022/03/18 08:31:31;;;;;;;16.33;4.30;;;;;;;;;;4949302;28;20493;-81
2022/03/18 08:33:57;;;;;;;16.55;3.20;;;;;;;;;;4995931;28;20039;-79
2022/03/18 08:36:23;;;;;;;14.18;3.67;;;;;;;;;;4951882;28;20152;-79
2022/03/18 08:38:49;;;;;;;13.60;4.05;;;;;;;;;;4938598;28;20039;-78
2022/03/18 08:41:14;;;;;;;10.95;3.33;;;;;;;;;;4928063;28;20085;-78
2022/03/18 08:43:40;;;;;;;12.82;2.92;;;;;;;;;;4937244;28;20039;-78
2022/03/18 08:46:06;;;;;;;11.82;3.53;;;;;;;;;;4951942;28;20187;-78
2022/03/18 08:48:32;;;;;;;18.92;2.92;;;;;;;;;;4924827;28;20042;-78
2022/03/18 08:50:58;;;;;;;11.57;4.10;;;;;;;;;;4945830;28;20166;-79
2022/03/18 08:53:23;;;;;;;12.23;2.95;;;;;;;;;;4931236;28;20043;-79
2022/03/18 08:55:49;;;;;;;11.82;3.33;;;;;;;;;;4955761;28;20578;-78
2022/03/18 08:58:15;;;;;;;15.55;3.88;;;;;;;;;;4954581;28;20070;-79
2022/03/18 09:00:41;;;;;;;15.52;3.30;;;;;;;;;;4956049;28;20067;-78
2022/03/18 09:03:07;;;;;;;17.20;3.88;;;;;;;;;;4956889;28;20070;-78
2022/03/18 09:05:32;;;;;;;13.30;3.72;;;;;;;;;;4951889;28;20517;-79
2022/03/18 09:07:59;;;;;;;20.60;4.47;;;;;;;;;;4966444;28;20049;-78
2022/03/18 09:10:24;;;;;;;19.02;3.78;;;;;;;;;;4965415;28;20121;-78
2022/03/18 09:12:55;;;;;;;12.40;3.03;;;;;;;;;;4966808;28;20053;-78
2022/03/18 09:15:21;;;;;;;16.75;3.88;;;;;;;;;;4950833;28;20066;-79
2022/03/18 09:17:47;;;;;;;13.38;4.22;;;;;;;;;;4962261;28;20053;-78
2022/03/18 09:20:12;;;;;;;18.77;3.65;;;;;;;;;;4949823;28;20504;-78
2022/03/18 09:22:38;;;;;;;13.00;3.63;;;;;;;;;;4949751;28;20304;-78
2022/03/18 09:25:04;;;;;;;17.25;3.70;;;;;;;;;;4965057;28;20118;-78
2022/03/18 09:27:30;;;;;;;20.27;7.13;;;;;;;;;;4950683;28;20543;-78
2022/03/18 09:29:59;;;;;;;13.43;5.10;;;;;;;;;;4951424;28;20349;-78
2022/03/18 09:32:25;;;;;;;14.60;5.00;;;;;;;;;;4958545;28;20043;-78
2022/03/18 09:34:51;;;;;;;13.55;4.80;;;;;;;;;;4953699;28;20158;-78
2022/03/18 09:37:16;;;;;;;15.52;5.50;;;;;;;;;;4958825;28;20071;-78
2022/03/18 09:39:42;;;;;;;19.63;5.93;;;;;;;;;;4948617;28;20165;-78
2022/03/18 09:42:08;;;;;;;15.05;5.40;;;;;;;;;;4957935;28;20145;-78
2022/03/18 09:44:37;;;;;;;16.88;5.40;;;;;;;;;;4952346;28;20063;-78
2022/03/18 09:47:07;;;;;;;14.50;4.88;;;;;;;;;;4973427;28;20057;-78
2022/03/18 09:49:35;;;;;;;18.38;5.30;;;;;;;;;;4943728;28;20118;-78
2022/03/18 09:52:01;;;;;;;17.20;5.18;;;;;;;;;;4964252;28;20522;-78
2022/03/18 09:54:28;;;;;;;18.25;6.03;;;;;;;;;;4948419;28;20437;-78
2022/03/18 09:56:54;;;;;;;18.02;5.50;;;;;;;;;;4948033;28;20091;-78
2022/03/18 09:59:23;;;;;;;19.33;5.45;;;;;;;;;;4958199;28;20134;-78
2022/03/18 10:01:49;;;;;;;15.95;5.38;;;;;;;;;;4963789;28;20129;-79
2022/03/18 10:04:15;;;;;;;13.98;5.20;;;;;;;;;;4951580;28;20109;-79
2022/03/18 10:06:42;;;;;;;19.45;6.72;;;;;;;;;;4963117;28;20031;-79
2022/03/18 10:09:09;;;;;;;18.73;6.07;;;;;;;;;;4966349;28;20049;-80
2022/03/18 10:11:37;;;;;;;17.92;6.30;;;;;;;;;;4948700;28;20100;-81
2022/03/18 10:14:07;;;;;;;21.02;7.50;;;;;;;;;;4935661;28;20125;-81
2022/03/18 10:16:43;;;;;;;17.85;7.10;;;;;;;;;;4954717;28;20449;-80
2022/03/18 10:19:09;;;;;;;;;;;;;;;;;;4966006;28;20134;-79
2022/03/18 10:22:07;;;;;;;18.23;7.28;;;;;;;;;;4949620;28;20418;-79
2022/03/18 10:24:36;;;;;;;16.35;6.72;;;;;;;;;;4963323;28;20502;-79
2022/03/18 10:27:15;;;;;;;16.13;7.65;;;;;;;;;;4947780;28;20042;-79
2022/03/18 10:29:46;;;;;;;20.15;7.22;;;;;;;;;;4964107;28;20777;-79
2022/03/18 10:32:12;;;;;;;17.00;7.22;;;;;;;;;;4964661;28;20092;-80
2022/03/18 10:37:50;;;;;;;18.65;8.05;;;;;;;;;;4960504;28;20432;-81
2022/03/18 10:40:33;;;;;;;18.17;7.80;;;;;;;;;;4949154;28;20067;-81
2022/03/18 10:43:00;;;;;;;19.05;8.05;;;;;;;;;;4963667;28;20046;-80
2022/03/18 10:45:26;;;;;;;17.48;6.95;;;;;;;;;;4940447;28;20035;-82
2022/03/18 10:47:52;;;;;;;19.33;7.85;;;;;;;;;;4941271;28;20137;-80
2022/03/18 10:50:29;;;;;;;13.98;6.93;;;;;;;;;;4946183;28;20047;-80
2022/03/18 10:52:57;;;;;;;14.43;7.40;;;;;;;;;;4964827;28;20050;-80
2022/03/18 10:55:29;;;;;;;15.38;7.65;;;;;;;;;;4956848;28;20054;-80
2022/03/18 10:57:59;;;;;;;15.30;7.68;;;;;;;;;;4939867;28;20406;-80
2022/03/18 11:00:29;;;;;;;18.13;8.15;;;;;;;;;;4948816;28;20034;-80
2022/03/18 11:02:58;;;;;;;14.32;7.53;;;;;;;;;;4948407;28;20043;-80
2022/03/18 11:05:25;;;;;;;18.92;8.02;;;;;;;;;;4945553;28;20035;-80
2022/03/18 11:07:51;;;;;;;16.55;8.63;;;;;;;;;;4946821;28;20442;-80
2022/03/18 11:13:04;;;;;;;12.82;7.97;;;;;;;;;;4956277;28;20174;-80
2022/03/18 11:15:31;;;;;;;17.92;10.48;;;;;;;;;;4947650;28;20039;-80
2022/03/18 11:17:57;;;;;;;16.98;9.13;;;;;;;;;;4947473;28;20550;-79
2022/03/18 11:20:27;;;;;;;20.30;11.15;;;;;;;;;;4949442;28;20035;-80
2022/03/18 11:22:54;;;;;;;17.45;9.80;;;;;;;;;;4961950;28;20187;-80
2022/03/18 11:25:21;;;;;;;19.40;10.65;;;;;;;;;;4952780;28;20105;-80
2022/03/18 11:27:47;;;;;;;22.83;11.63;;;;;;;;;;4951435;28;20049;-80
2022/03/18 11:30:47;;;;;;;19.98;9.95;;;;;;;;;;4960567;28;20605;-80
2022/03/18 11:33:15;;;;;;;25.67;11.57;;;;;;;;;;4914881;28;20383;-80
2022/03/18 11:35:50;;;;;;;15.63;9.32;;;;;;;;;;4964748;28;20043;-80
2022/03/18 11:38:23;;;;;;;17.50;9.20;;;;;;;;;;4967287;28;20034;-80
2022/03/18 11:41:00;;;;;;;18.77;9.48;;;;;;;;;;4997153;28;20047;-80
2022/03/18 11:43:41;;;;;;;16.05;9.02;;;;;;;;;;4970298;28;20038;-80
2022/03/18 11:46:13;;;;;;;19.38;9.25;;;;;;;;;;4977835;28;20047;-80
2022/03/18 11:48:51;;;;;;;16.98;10.13;;;;;;;;;;4965330;28;20046;-80
2022/03/18 11:51:33;;;;;;;18.58;9.05;;;;;;;;;;4956649;28;20401;-81
2022/03/18 11:54:01;;;;;;;15.77;9.90;;;;;;;;;;4943594;28;20043;-80
2022/03/18 11:56:52;;;;;;;14.43;8.90;;;;;;;;;;4943640;28;20126;-81
2022/03/18 11:59:29;;;;;;;18.15;9.30;;;;;;;;;;4977033;28;20039;-79
2022/03/18 12:02:09;;;;;;;15.15;9.18;;;;;;;;;;4963809;28;20063;-79
2022/03/18 12:04:41;;;;;;;18.00;9.82;;;;;;;;;;4961176;28;20400;-77
2022/03/18 12:07:18;;;;;;;14.82;8.95;;;;;;;;;;4961105;28;20121;-77
2022/03/18 12:10:03;;;;;;;21.67;10.35;;;;;;;;;;4963104;28;20039;-76
2022/03/18 12:12:32;;;;;;;16.50;9.00;;;;;;;;;;4963891;28;20042;-79
2022/03/18 12:15:06;;;;;;;23.15;10.77;;;;;;;;;;4963837;28;20976;-79
2022/03/18 12:17:41;;;;;;;18.40;8.82;;;;;;;;;;4963815;28;20129;-79
2022/03/18 12:20:09;;;;;;;16.15;9.20;;;;;;;;;;4945804;28;20421;-79
2022/03/18 12:22:37;;;;;;;18.00;9.50;;;;;;;;;;4954201;28;20492;-79
2022/03/18 12:25:05;;;;;;;15.60;8.32;;;;;;;;;;4950207;28;20042;-79
2022/03/18 12:27:36;;;;;;;18.20;9.00;;;;;;;;;;4951630;28;20035;-79
2022/03/18 12:30:07;;;;;;;18.15;9.15;;;;;;;;;;4940811;28;20043;-78
2022/03/18 12:32:34;;;;;;;16.83;8.85;;;;;;;;;;4960570;28;20407;-79
2022/03/18 12:35:04;;;;;;;17.88;9.65;;;;;;;;;;4944251;28;20074;-79
2022/03/18 12:37:31;;;;;;;18.17;9.27;;;;;;;;;;4952542;28;20127;-79
2022/03/18 12:40:19;;;;;;;17.77;9.05;;;;;;;;;;4967101;28;20078;-79
2022/03/18 12:42:56;;;;;;;18.40;9.25;;;;;;;;;;4950992;28;20066;-78
2022/03/18 12:45:31;;;;;;;19.45;9.25;;;;;;;;;;4950870;28;20067;-78
2022/03/18 12:48:02;;;;;;;25.70;9.63;;;;;;;;;;4992945;28;20043;-78
2022/03/18 12:50:39;;;;;;;24.27;12.60;;;;;;;;;;4965996;28;20042;-79
2022/03/18 12:53:20;;;;;;;20.60;10.32;;;;;;;;;;4965736;28;20043;-79
2022/03/18 12:55:53;;;;;;;20.48;7.85;;;;;;;;;;4949732;28;20097;-79
2022/03/18 12:58:20;;;;;;;18.17;9.07;;;;;;;;;;4950546;28;20045;-79
2022/03/18 13:00:50;;;;;;;20.48;9.60;;;;;;;;;;4951035;28;20282;-78
2022/03/18 13:03:17;;;;;;;17.85;8.55;;;;;;;;;;4948364;28;20066;-79
2022/03/18 13:05:44;;;;;;;20.50;8.77;;;;;;;;;;4967368;28;20043;-79
2022/03/18 13:08:11;;;;;;;18.67;8.02;;;;;;;;;;4950316;28;20066;-80
2022/03/18 13:10:37;;;;;;;20.15;9.07;;;;;;;;;;4967376;28;20062;-79
2022/03/18 13:13:10;;;;;;;20.20;9.50;;;;;;;;;;4943381;28;20069;-79
2022/03/18 13:15:40;;;;;;;21.92;8.18;;;;;;;;;;4951021;28;20171;-78
2022/03/18 13:18:13;;;;;;;17.20;8.77;;;;;;;;;;4936230;28;20068;-78
2022/03/18 13:20:40;;;;;;;17.08;7.53;;;;;;;;;;4928746;28;20095;-78
2022/03/18 13:23:07;;;;;;;17.10;7.22;;;;;;;;;;4960300;28;20859;-78
2022/03/18 13:25:34;;;;;;;14.00;7.25;;;;;;;;;;4956914;28;20038;-79
2022/03/18 13:28:01;;;;;;;16.20;7.47;;;;;;;;;;4957514;28;20047;-79
2022/03/18 13:33:12;;;;;;;16.85;6.72;;;;;;;;;;4940998;28;20062;-79
2022/03/18 13:35:53;;;;;;;16.25;7.43;;;;;;;;;;4947449;28;20063;-79
2022/03/18 13:38:21;;;;;;;17.40;6.65;;;;;;;;;;4953967;28;20567;-79
2022/03/18 13:40:58;;;;;;;14.98;6.72;;;;;;;;;;4966653;28;20041;-78
2022/03/18 13:43:27;;;;;;;12.65;6.47;;;;;;;;;;4978842;28;20027;-79
2022/03/18 13:45:53;;;;;;;16.27;6.22;;;;;;;;;;4968489;28;20101;-79
2022/03/18 13:48:28;;;;;;;13.60;6.22;;;;;;;;;;4967245;28;20035;-79
2022/03/18 13:50:54;;;;;;;18.20;6.40;;;;;;;;;;4967874;28;20046;-79
2022/03/18 13:53:23;;;;;;;15.85;6.22;;;;;;;;;;4948714;28;20366;-80
2022/03/18 13:55:53;;;;;;;17.42;6.13;;;;;;;;;;4957366;28;20523;-80
2022/03/18 13:58:30;;;;;;;15.15;5.85;;;;;;;;;;4967173;28;20496;-80
2022/03/18 14:01:10;;;;;;;13.68;5.75;;;;;;;;;;4980745;28;20405;-80
2022/03/18 14:03:36;;;;;;;15.50;6.45;;;;;;;;;;4950500;28;20550;-80
2022/03/18 14:06:03;;;;;;;20.52;6.00;;;;;;;;;;4949397;28;20046;-80
2022/03/18 14:08:30;;;;;;;15.57;5.88;;;;;;;;;;4950175;28;20043;-80
2022/03/18 14:11:00;;;;;;;13.88;6.30;;;;;;;;;;4951275;28;20448;-80
2022/03/18 14:13:31;;;;;;;12.32;5.30;;;;;;;;;;4947845;28;20074;-78
2022/03/18 14:15:57;;;;;;;13.00;4.78;;;;;;;;;;4946726;28;20055;-78
2022/03/18 14:18:24;;;;;;;10.80;5.10;;;;;;;;;;4933320;28;20091;-78
2022/03/18 14:20:52;;;;;;;14.23;5.13;;;;;;;;;;4925621;29;20572;-79
2022/03/18 14:23:29;;;;;;;10.45;4.68;;;;;;;;;;4957159;28;20158;-79
2022/03/18 14:26:00;;;;;;;15.32;5.22;;;;;;;;;;4938428;28;20138;-79
2022/03/18 14:28:34;;;;;;;9.95;4.07;;;;;;;;;;4941850;28;20069;-78
2022/03/18 14:31:00;;;;;;;8.95;3.83;;;;;;;;;;4930444;28;20059;-78
2022/03/18 14:33:30;;;;;;;9.93;3.40;;;;;;;;;;4956906;28;20047;-78
2022/03/18 14:35:56;;;;;;;8.80;2.90;;;;;;;;;;4939710;28;20050;-78
2022/03/18 14:38:24;;;;;;;6.97;3.28;;;;;;;;;;4979146;28;20081;-78
2022/03/18 14:40:50;;;;;;;9.25;3.22;;;;;;;;;;4957159;28;20046;-78
2022/03/18 14:43:19;;;;;;;7.07;2.83;;;;;;;;;;4959672;28;20409;-78
2022/03/18 14:45:45;;;;;;;8.75;3.08;;;;;;;;;;4948221;28;20058;-78
2022/03/18 14:48:11;;;;;;;8.77;3.15;;;;;;;;;;4951017;28;20043;-78